sensor_id;sensor_type;location;lat;lon;timestamp;pressure;altitude;pressure_sealevel;temperature;humidity
62617;BME280;62539;51.190;6.808;2023-05-19T00:01:49;102232.75;;;20.71;47.71
62617;BME280;62539;51.190;6.808;2023-05-19T00:04:16;102236.28;;;20.70;48.10
62617;BME280;62539;51.190;6.808;2023-05-19T00:06:43;102234.56;;;20.69;47.88
62617;BME280;62539;51.190;6.808;2023-05-19T00:09:15;102225.81;;;20.67;47.95
62617;BME280;62539;51.190;6.808;2023-05-19T00:11:41;102234.63;;;20.66;47.94
62617;BME280;62539;51.190;6.808;2023-05-19T00:14:08;102231.13;;;20.64;48.16
62617;BME280;62539;51.190;6.808;2023-05-19T00:16:34;102230.28;;;20.63;48.13
62617;BME280;62539;51.190;6.808;2023-05-19T00:19:03;102228.56;;;20.62;48.01
62617;BME280;62539;51.190;6.808;2023-05-19T00:21:30;102227.72;;;20.60;48.12
62617;BME280;62539;51.190;6.808;2023-05-19T00:23:56;102238.28;;;20.59;48.15
62617;BME280;62539;51.190;6.808;2023-05-19T00:26:23;102224.25;;;20.56;48.10
62617;BME280;62539;51.190;6.808;2023-05-19T00:28:51;102230.44;;;20.55;48.29
62617;BME280;62539;51.190;6.808;2023-05-19T00:31:18;102229.59;;;20.53;48.11
62617;BME280;62539;51.190;6.808;2023-05-19T00:33:43;102226.94;;;20.53;48.28
62617;BME280;62539;51.190;6.808;2023-05-19T00:36:09;102228.75;;;20.51;48.18
62617;BME280;62539;51.190;6.808;2023-05-19T00:38:35;102227.91;;;20.49;48.19
62617;BME280;62539;51.190;6.808;2023-05-19T00:41:02;102229.69;;;20.49;48.24
62617;BME280;62539;51.190;6.808;2023-05-19T00:43:30;102233.25;;;20.46;48.41
62617;BME280;62539;51.190;6.808;2023-05-19T00:45:56;102226.22;;;20.45;48.20
62617;BME280;62539;51.190;6.808;2023-05-19T00:48:23;102226.22;;;20.45;48.32
62617;BME280;62539;51.190;6.808;2023-05-19T00:50:49;102227.19;;;20.42;48.57
62617;BME280;62539;51.190;6.808;2023-05-19T00:53:17;102224.53;;;20.42;48.49
62617;BME280;62539;51.190;6.808;2023-05-19T00:55:43;102224.56;;;20.41;48.64
62617;BME280;62539;51.190;6.808;2023-05-19T00:58:10;102215.81;;;20.39;48.44
62617;BME280;62539;51.190;6.808;2023-05-19T01:00:38;102221.06;;;20.39;48.42
62617;BME280;62539;51.190;6.808;2023-05-19T01:03:05;102220.25;;;20.37;48.55
62617;BME280;62539;51.190;6.808;2023-05-19T01:05:40;102218.53;;;20.34;48.71
62617;BME280;62539;51.190;6.808;2023-05-19T01:08:09;102212.38;;;20.34;48.61
62617;BME280;62539;51.190;6.808;2023-05-19T01:10:35;102221.19;;;20.33;48.65
62617;BME280;62539;51.190;6.808;2023-05-19T01:13:02;102218.59;;;20.31;48.56
62617;BME280;62539;51.190;6.808;2023-05-19T01:15:29;102214.22;;;20.30;48.57
62617;BME280;62539;51.190;6.808;2023-05-19T01:18:13;102209.88;;;20.27;48.73
62617;BME280;62539;51.190;6.808;2023-05-19T01:20:50;102215.19;;;20.26;48.56
62617;BME280;62539;51.190;6.808;2023-05-19T01:24:06;102208.19;;;20.23;48.76
62617;BME280;62539;51.190;6.808;2023-05-19T01:32:57;102206.56;;;20.18;49.05
62617;BME280;62539;51.190;6.808;2023-05-19T01:35:25;102205.72;;;20.16;48.89
62617;BME280;62539;51.190;6.808;2023-05-19T01:37:58;102201.34;;;20.15;48.75
62617;BME280;62539;51.190;6.808;2023-05-19T01:40:26;102199.59;;;20.14;49.01
62617;BME280;62539;51.190;6.808;2023-05-19T01:42:54;102208.41;;;20.12;48.85
62617;BME280;62539;51.190;6.808;2023-05-19T01:45:22;102199.63;;;20.12;48.87
62617;BME280;62539;51.190;6.808;2023-05-19T01:47:51;102200.50;;;20.11;48.89
62617;BME280;62539;51.190;6.808;2023-05-19T01:50:20;102204.03;;;20.10;49.08
62617;BME280;62539;51.190;6.808;2023-05-19T01:52:45;102209.31;;;20.10;49.12
62617;BME280;62539;51.190;6.808;2023-05-19T01:55:11;102212.00;;;20.07;49.04
62617;BME280;62539;51.190;6.808;2023-05-19T02:00:16;102207.63;;;20.06;49.09
62617;BME280;62539;51.190;6.808;2023-05-19T02:05:51;102213.84;;;20.03;49.09
62617;BME280;62539;51.190;6.808;2023-05-19T02:08:29;102221.75;;;20.02;49.15
62617;BME280;62539;51.190;6.808;2023-05-19T02:11:07;102213.00;;;20.00;49.19
62617;BME280;62539;51.190;6.808;2023-05-19T02:13:43;102220.97;;;19.98;49.29
62617;BME280;62539;51.190;6.808;2023-05-19T02:16:10;102218.34;;;19.96;49.18
62617;BME280;62539;51.190;6.808;2023-05-19T02:18:38;102218.34;;;19.96;49.16
62617;BME280;62539;51.190;6.808;2023-05-19T02:21:04;102215.75;;;19.95;49.22
62617;BME280;62539;51.190;6.808;2023-05-19T02:23:29;102220.13;;;19.94;49.33
62617;BME280;62539;51.190;6.808;2023-05-19T02:25:55;102214.00;;;19.94;49.37
62617;BME280;62539;51.190;6.808;2023-05-19T02:28:20;102209.63;;;19.91;49.26
62617;BME280;62539;51.190;6.808;2023-05-19T02:30:46;102212.28;;;19.91;49.23
62617;BME280;62539;51.190;6.808;2023-05-19T02:33:11;102205.28;;;19.90;49.65
62617;BME280;62539;51.190;6.808;2023-05-19T02:35:36;102206.16;;;19.89;49.38
62617;BME280;62539;51.190;6.808;2023-05-19T02:38:02;102212.31;;;19.90;49.32
62617;BME280;62539;51.190;6.808;2023-05-19T02:40:27;102205.28;;;19.87;49.38
62617;BME280;62539;51.190;6.808;2023-05-19T02:42:53;102207.06;;;19.87;49.37
62617;BME280;62539;51.190;6.808;2023-05-19T02:45:18;102205.34;;;19.86;49.50
62617;BME280;62539;51.190;6.808;2023-05-19T02:47:43;102200.06;;;19.84;49.42
62617;BME280;62539;51.190;6.808;2023-05-19T02:50:09;102196.59;;;19.83;49.44
62617;BME280;62539;51.190;6.808;2023-05-19T02:52:34;102197.50;;;19.82;49.51
62617;BME280;62539;51.190;6.808;2023-05-19T02:55:00;102191.34;;;19.82;49.55
62617;BME280;62539;51.190;6.808;2023-05-19T02:57:28;102193.13;;;19.81;49.25
62617;BME280;62539;51.190;6.808;2023-05-19T02:59:55;102187.00;;;19.79;49.46
62617;BME280;62539;51.190;6.808;2023-05-19T03:02:21;102192.28;;;19.78;49.59
62617;BME280;62539;51.190;6.808;2023-05-19T03:04:46;102187.00;;;19.78;49.75
62617;BME280;62539;51.190;6.808;2023-05-19T03:07:12;102186.19;;;19.76;49.65
62617;BME280;62539;51.190;6.808;2023-05-19T03:09:38;102189.69;;;19.75;49.45
62617;BME280;62539;51.190;6.808;2023-05-19T03:12:04;102185.34;;;19.74;49.66
62617;BME280;62539;51.190;6.808;2023-05-19T03:14:32;102195.88;;;19.74;49.65
62617;BME280;62539;51.190;6.808;2023-05-19T03:16:58;102192.38;;;19.72;49.60
62617;BME280;62539;51.190;6.808;2023-05-19T03:19:24;102195.91;;;19.71;49.60
62617;BME280;62539;51.190;6.808;2023-05-19T03:21:50;102199.44;;;19.71;49.57
62617;BME280;62539;51.190;6.808;2023-05-19T03:24:15;102195.97;;;19.69;49.54
62617;BME280;62539;51.190;6.808;2023-05-19T03:26:41;102200.34;;;19.68;49.69
62617;BME280;62539;51.190;6.808;2023-05-19T03:29:06;102202.97;;;19.68;49.59
62617;BME280;62539;51.190;6.808;2023-05-19T03:31:32;102203.88;;;19.67;49.71
62617;BME280;62539;51.190;6.808;2023-05-19T03:33:57;102194.22;;;19.66;49.72
62617;BME280;62539;51.190;6.808;2023-05-19T03:36:23;102196.00;;;19.64;49.67
62617;BME280;62539;51.190;6.808;2023-05-19T03:38:48;102188.16;;;19.63;49.49
62617;BME280;62539;51.190;6.808;2023-05-19T03:41:14;102196.94;;;19.62;49.75
62617;BME280;62539;51.190;6.808;2023-05-19T03:43:39;102190.81;;;19.61;49.76
62617;BME280;62539;51.190;6.808;2023-05-19T03:46:05;102189.06;;;19.60;49.75
62617;BME280;62539;51.190;6.808;2023-05-19T03:48:30;102194.31;;;19.60;49.79
62617;BME280;62539;51.190;6.808;2023-05-19T03:50:55;102192.59;;;19.59;49.50
62617;BME280;62539;51.190;6.808;2023-05-19T03:53:22;102193.47;;;19.58;49.77
62617;BME280;62539;51.190;6.808;2023-05-19T03:55:48;102195.25;;;19.58;49.87
62617;BME280;62539;51.190;6.808;2023-05-19T03:58:14;102199.66;;;19.57;49.96
62617;BME280;62539;51.190;6.808;2023-05-19T04:00:40;102197.06;;;19.56;49.89
62617;BME280;62539;51.190;6.808;2023-05-19T04:03:06;102193.53;;;19.55;49.89
62617;BME280;62539;51.190;6.808;2023-05-19T04:05:32;102195.31;;;19.54;49.77
62617;BME280;62539;51.190;6.808;2023-05-19T04:07:58;102184.78;;;19.54;49.84
62617;BME280;62539;51.190;6.808;2023-05-19T04:10:24;102187.44;;;19.53;49.92
62617;BME280;62539;51.190;6.808;2023-05-19T04:12:49;102185.69;;;19.52;50.00
62617;BME280;62539;51.190;6.808;2023-05-19T04:15:15;102190.94;;;19.52;50.22
62617;BME280;62539;51.190;6.808;2023-05-19T04:17:40;102185.72;;;19.50;49.93
62617;BME280;62539;51.190;6.808;2023-05-19T04:20:06;102189.22;;;19.51;49.97
62617;BME280;62539;51.190;6.808;2023-05-19T04:22:32;102190.09;;;19.50;50.10
62617;BME280;62539;51.190;6.808;2023-05-19T04:24:58;102185.72;;;19.49;50.09
62617;BME280;62539;51.190;6.808;2023-05-19T04:27:24;102191.00;;;19.49;49.99
62617;BME280;62539;51.190;6.808;2023-05-19T04:29:52;102189.25;;;19.48;49.84
62617;BME280;62539;51.190;6.808;2023-05-19T04:32:18;102184.88;;;19.47;49.95
62617;BME280;62539;51.190;6.808;2023-05-19T04:34:44;102191.03;;;19.47;50.02
62617;BME280;62539;51.190;6.808;2023-05-19T04:37:11;102193.69;;;19.46;50.14
62617;BME280;62539;51.190;6.808;2023-05-19T04:39:38;102191.06;;;19.46;49.86
62617;BME280;62539;51.190;6.808;2023-05-19T04:42:08;102191.94;;;19.46;50.04
62617;BME280;62539;51.190;6.808;2023-05-19T04:44:34;102183.16;;;19.46;50.03
62617;BME280;62539;51.190;6.808;2023-05-19T04:47:02;102193.69;;;19.46;50.06
62617;BME280;62539;51.190;6.808;2023-05-19T04:49:30;102195.47;;;19.45;50.06
62617;BME280;62539;51.190;6.808;2023-05-19T04:51:56;102194.56;;;19.45;50.10
62617;BME280;62539;51.190;6.808;2023-05-19T04:54:22;102193.69;;;19.46;49.86
62617;BME280;62539;51.190;6.808;2023-05-19T04:56:47;102197.19;;;19.45;50.04
62617;BME280;62539;51.190;6.808;2023-05-19T04:59:12;102195.47;;;19.45;50.06
62617;BME280;62539;51.190;6.808;2023-05-19T05:01:38;102193.72;;;19.44;50.02
62617;BME280;62539;51.190;6.808;2023-05-19T05:04:04;102196.31;;;19.46;50.02
62617;BME280;62539;51.190;6.808;2023-05-19T05:06:31;102196.31;;;19.46;49.96
62617;BME280;62539;51.190;6.808;2023-05-19T05:08:56;102196.31;;;19.46;50.04
62617;BME280;62539;51.190;6.808;2023-05-19T05:11:22;102182.31;;;19.45;49.98
62617;BME280;62539;51.190;6.808;2023-05-19T05:13:48;102188.41;;;19.46;49.91
62617;BME280;62539;51.190;6.808;2023-05-19T05:16:13;102189.31;;;19.45;50.18
62617;BME280;62539;51.190;6.808;2023-05-19T05:18:40;102194.56;;;19.46;49.97
62617;BME280;62539;51.190;6.808;2023-05-19T05:21:06;102200.69;;;19.47;49.83
62617;BME280;62539;51.190;6.808;2023-05-19T05:23:32;102205.06;;;19.48;49.91
62617;BME280;62539;51.190;6.808;2023-05-19T05:25:57;102197.19;;;19.46;49.98
62617;BME280;62539;51.190;6.808;2023-05-19T05:28:23;102187.53;;;19.47;50.08
62617;BME280;62539;51.190;6.808;2023-05-19T05:30:48;102190.16;;;19.47;49.93
62617;BME280;62539;51.190;6.808;2023-05-19T05:33:15;102188.41;;;19.47;49.90
62617;BME280;62539;51.190;6.808;2023-05-19T05:35:41;102189.25;;;19.48;49.99
62617;BME280;62539;51.190;6.808;2023-05-19T05:38:07;102198.03;;;19.48;50.22
62617;BME280;62539;51.190;6.808;2023-05-19T05:40:32;102197.16;;;19.49;50.14
62617;BME280;62539;51.190;6.808;2023-05-19T05:42:58;102192.75;;;19.50;50.00
62617;BME280;62539;51.190;6.808;2023-05-19T05:45:23;102194.47;;;19.51;50.09
62617;BME280;62539;51.190;6.808;2023-05-19T05:47:50;102189.22;;;19.51;50.10
62617;BME280;62539;51.190;6.808;2023-05-19T05:50:16;102185.69;;;19.52;50.21
62617;BME280;62539;51.190;6.808;2023-05-19T05:52:45;102189.19;;;19.52;50.05
62617;BME280;62539;51.190;6.808;2023-05-19T05:55:11;102190.94;;;19.53;50.06
62617;BME280;62539;51.190;6.808;2023-05-19T05:57:37;102189.16;;;19.54;50.10
62617;BME280;62539;51.190;6.808;2023-05-19T06:00:06;102194.38;;;19.57;50.16
62617;BME280;62539;51.190;6.808;2023-05-19T06:02:44;102189.13;;;19.57;50.04
62617;BME280;62539;51.190;6.808;2023-05-19T06:05:14;102190.00;;;19.58;50.03
62617;BME280;62539;51.190;6.808;2023-05-19T06:07:40;102182.09;;;19.58;49.96
62617;BME280;62539;51.190;6.808;2023-05-19T06:10:06;102184.69;;;19.59;50.07
62617;BME280;62539;51.190;6.808;2023-05-19T06:12:33;102177.69;;;19.60;50.22
62617;BME280;62539;51.190;6.808;2023-05-19T06:15:00;102182.91;;;19.63;50.06
62617;BME280;62539;51.190;6.808;2023-05-19T06:17:26;102177.63;;;19.63;50.05
62617;BME280;62539;51.190;6.808;2023-05-19T06:19:53;102178.47;;;19.63;50.03
62617;BME280;62539;51.190;6.808;2023-05-19T06:22:18;102180.22;;;19.64;49.82
62617;BME280;62539;51.190;6.808;2023-05-19T06:24:44;102182.84;;;19.66;49.97
62617;BME280;62539;51.190;6.808;2023-05-19T06:27:09;102188.97;;;19.66;49.95
62617;BME280;62539;51.190;6.808;2023-05-19T06:29:35;102185.44;;;19.67;49.90
62617;BME280;62539;51.190;6.808;2023-05-19T06:32:00;102187.19;;;19.68;49.92
62617;BME280;62539;51.190;6.808;2023-05-19T06:34:25;102179.25;;;19.70;49.84
62617;BME280;62539;51.190;6.808;2023-05-19T06:36:51;102181.84;;;19.72;49.90
62617;BME280;62539;51.190;6.808;2023-05-19T06:39:16;102174.84;;;19.72;49.78
62617;BME280;62539;51.190;6.808;2023-05-19T06:41:42;102180.94;;;19.74;49.68
62617;BME280;62539;51.190;6.808;2023-05-19T06:44:07;102181.81;;;19.75;49.68
62617;BME280;62539;51.190;6.808;2023-05-19T06:46:33;102182.66;;;19.77;49.75
62617;BME280;62539;51.190;6.808;2023-05-19T06:48:59;102169.47;;;19.77;49.55
62617;BME280;62539;51.190;6.808;2023-05-19T06:51:25;102184.38;;;19.79;49.57
62617;BME280;62539;51.190;6.808;2023-05-19T06:53:50;102180.84;;;19.80;49.26
62617;BME280;62539;51.190;6.808;2023-05-19T06:56:16;102183.44;;;19.82;49.60
62617;BME280;62539;51.190;6.808;2023-05-19T06:58:43;102179.91;;;19.83;49.39
62617;BME280;62539;51.190;6.808;2023-05-19T07:01:09;102179.00;;;19.86;49.50
62617;BME280;62539;51.190;6.808;2023-05-19T07:03:35;102182.47;;;19.86;49.53
62617;BME280;62539;51.190;6.808;2023-05-19T07:06:01;102183.31;;;19.88;49.57
62617;BME280;62539;51.190;6.808;2023-05-19T07:08:27;102186.84;;;19.90;49.60
62617;BME280;62539;51.190;6.808;2023-05-19T07:10:52;102185.94;;;19.91;49.52
62617;BME280;62539;51.190;6.808;2023-05-19T07:13:19;102191.16;;;19.94;49.57
62617;BME280;62539;51.190;6.808;2023-05-19T07:15:44;102180.59;;;19.96;49.44
62617;BME280;62539;51.190;6.808;2023-05-19T07:18:10;102177.94;;;19.97;49.55
62617;BME280;62539;51.190;6.808;2023-05-19T07:20:35;102181.41;;;20.00;49.49
62617;BME280;62539;51.190;6.808;2023-05-19T07:23:01;102182.28;;;20.00;49.55
62617;BME280;62539;51.190;6.808;2023-05-19T07:25:29;102181.34;;;20.03;49.38
62617;BME280;62539;51.190;6.808;2023-05-19T07:27:55;102189.25;;;20.04;49.59
62617;BME280;62539;51.190;6.808;2023-05-19T07:30:21;102181.28;;;20.06;49.52
62617;BME280;62539;51.190;6.808;2023-05-19T07:32:46;102178.66;;;20.07;49.36
62617;BME280;62539;51.190;6.808;2023-05-19T07:35:12;102175.97;;;20.09;49.11
62617;BME280;62539;51.190;6.808;2023-05-19T07:37:38;102172.44;;;20.10;49.36
62617;BME280;62539;51.190;6.808;2023-05-19T07:40:04;102175.91;;;20.12;49.57
62617;BME280;62539;51.190;6.808;2023-05-19T07:42:30;102175.84;;;20.15;49.47
62617;BME280;62539;51.190;6.808;2023-05-19T07:44:56;102177.59;;;20.16;49.57
62617;BME280;62539;51.190;6.808;2023-05-19T07:47:21;102174.94;;;20.18;49.63
62617;BME280;62539;51.190;6.808;2023-05-19T07:49:47;102167.00;;;20.19;49.52
62617;BME280;62539;51.190;6.808;2023-05-19T07:52:12;102166.06;;;20.22;49.71
62617;BME280;62539;51.190;6.808;2023-05-19T07:54:38;102160.75;;;20.23;49.74
62617;BME280;62539;51.190;6.808;2023-05-19T07:57:03;102166.88;;;20.25;49.58
62617;BME280;62539;51.190;6.808;2023-05-19T07:59:28;102165.97;;;20.26;49.68
62617;BME280;62539;51.190;6.808;2023-05-19T08:01:54;102156.28;;;20.29;49.61
62617;BME280;62539;51.190;6.808;2023-05-19T08:04:19;102152.72;;;20.30;49.52
62617;BME280;62539;51.190;6.808;2023-05-19T08:06:45;102146.56;;;20.31;49.65
62617;BME280;62539;51.190;6.808;2023-05-19T08:09:10;102152.66;;;20.33;49.54
62617;BME280;62539;51.190;6.808;2023-05-19T08:11:36;102149.13;;;20.34;49.71
62617;BME280;62539;51.190;6.808;2023-05-19T08:14:02;102148.25;;;20.35;49.76
62617;BME280;62539;51.190;6.808;2023-05-19T08:16:27;102142.06;;;20.36;49.75
62617;BME280;62539;51.190;6.808;2023-05-19T08:18:53;102139.41;;;20.37;49.50
62617;BME280;62539;51.190;6.808;2023-05-19T08:21:19;102133.25;;;20.38;49.48
62617;BME280;62539;51.190;6.808;2023-05-19T08:23:45;102134.09;;;20.40;49.50
62617;BME280;62539;51.190;6.808;2023-05-19T08:26:11;102136.66;;;20.42;49.77
62617;BME280;62539;51.190;6.808;2023-05-19T08:28:36;102134.91;;;20.42;49.52
62617;BME280;62539;51.190;6.808;2023-05-19T08:31:02;102135.75;;;20.45;49.45
62617;BME280;62539;51.190;6.808;2023-05-19T08:33:27;102133.97;;;20.45;49.37
62617;BME280;62539;51.190;6.808;2023-05-19T08:35:54;102126.06;;;20.47;49.15
62617;BME280;62539;51.190;6.808;2023-05-19T08:38:22;102131.28;;;20.48;49.57
62617;BME280;62539;51.190;6.808;2023-05-19T08:40:47;102133.00;;;20.49;49.50
62617;BME280;62539;51.190;6.808;2023-05-19T08:43:13;102125.94;;;20.51;49.14
62617;BME280;62539;51.190;6.808;2023-05-19T08:45:43;102119.75;;;20.52;49.23
62617;BME280;62539;51.190;6.808;2023-05-19T08:48:13;102123.22;;;20.54;49.23
62617;BME280;62539;51.190;6.808;2023-05-19T08:53:35;102115.31;;;20.56;49.20
62617;BME280;62539;51.190;6.808;2023-05-19T08:56:21;102116.09;;;20.60;49.23
62617;BME280;62539;51.190;6.808;2023-05-19T08:58:49;102117.81;;;20.61;49.22
62617;BME280;62539;51.190;6.808;2023-05-19T09:01:16;102121.31;;;20.63;49.02
62617;BME280;62539;51.190;6.808;2023-05-19T09:03:43;102117.75;;;20.64;49.15
62617;BME280;62539;51.190;6.808;2023-05-19T09:06:10;102123.88;;;20.66;48.94
62617;BME280;62539;51.190;6.808;2023-05-19T09:08:39;102116.78;;;20.68;48.85
62617;BME280;62539;51.190;6.808;2023-05-19T09:11:06;102103.59;;;20.69;48.93
62617;BME280;62539;51.190;6.808;2023-05-19T09:13:33;102103.53;;;20.71;49.02
62617;BME280;62539;51.190;6.808;2023-05-19T09:15:59;102099.09;;;20.73;48.78
62617;BME280;62539;51.190;6.808;2023-05-19T09:18:26;102107.84;;;20.75;48.78
62617;BME280;62539;51.190;6.808;2023-05-19T09:20:58;102105.16;;;20.78;48.83
62617;BME280;62539;51.190;6.808;2023-05-19T09:23:28;102099.00;;;20.79;48.76
62617;BME280;62539;51.190;6.808;2023-05-19T09:25:56;102091.91;;;20.81;48.54
62617;BME280;62539;51.190;6.808;2023-05-19T09:28:26;102095.38;;;20.83;48.57
62617;BME280;62539;51.190;6.808;2023-05-19T09:31:05;102088.31;;;20.85;48.71
62617;BME280;62539;51.190;6.808;2023-05-19T09:33:34;102087.38;;;20.88;48.63
62617;BME280;62539;51.190;6.808;2023-05-19T09:36:00;102093.44;;;20.92;48.29
62617;BME280;62539;51.190;6.808;2023-05-19T09:38:27;102089.88;;;20.93;48.63
62617;BME280;62539;51.190;6.808;2023-05-19T09:40:57;102085.44;;;20.96;48.47
62617;BME280;62539;51.190;6.808;2023-05-19T09:43:27;102081.00;;;20.97;48.50
62617;BME280;62539;51.190;6.808;2023-05-19T09:46:08;102075.66;;;21.00;48.13
62617;BME280;62539;51.190;6.808;2023-05-19T09:48:36;102070.31;;;21.03;48.36
62617;BME280;62539;51.190;6.808;2023-05-19T09:51:03;102060.56;;;21.05;48.12
62617;BME280;62539;51.190;6.808;2023-05-19T09:53:30;102061.41;;;21.07;48.36
62617;BME280;62539;51.190;6.808;2023-05-19T09:55:57;102054.28;;;21.11;48.00
62617;BME280;62539;51.190;6.808;2023-05-19T09:58:23;102062.13;;;21.14;47.95
62617;BME280;62539;51.190;6.808;2023-05-19T10:00:49;102052.34;;;21.18;47.71
62617;BME280;62539;51.190;6.808;2023-05-19T10:03:15;102055.81;;;21.20;47.95
62617;BME280;62539;51.190;6.808;2023-05-19T10:05:43;102046.09;;;21.22;47.63
62617;BME280;62539;51.190;6.808;2023-05-19T10:08:10;102050.38;;;21.26;47.90
62617;BME280;62539;51.190;6.808;2023-05-19T10:10:36;102050.31;;;21.27;47.75
62617;BME280;62539;51.190;6.808;2023-05-19T10:13:03;102059.06;;;21.31;47.55
62617;BME280;62539;51.190;6.808;2023-05-19T10:15:30;102058.97;;;21.34;47.40
62617;BME280;62539;51.190;6.808;2023-05-19T10:17:56;102060.63;;;21.38;47.56
62617;BME280;62539;51.190;6.808;2023-05-19T10:20:23;102064.03;;;21.42;47.33
62617;BME280;62539;51.190;6.808;2023-05-19T10:22:51;102059.59;;;21.44;47.34
62617;BME280;62539;51.190;6.808;2023-05-19T10:25:16;102056.84;;;21.49;47.26
62617;BME280;62539;51.190;6.808;2023-05-19T10:27:52;102050.59;;;21.51;47.34
62617;BME280;62539;51.190;6.808;2023-05-19T10:30:35;102056.66;;;21.55;47.26
62617;BME280;62539;51.190;6.808;2023-05-19T10:33:05;102046.88;;;21.58;46.97
62617;BME280;62539;51.190;6.808;2023-05-19T10:41:08;102054.47;;;21.72;46.81
62617;BME280;62539;51.190;6.808;2023-05-19T10:43:59;102050.84;;;21.77;46.58
62617;BME280;62539;51.190;6.808;2023-05-19T10:46:38;102044.56;;;21.81;46.70
62617;BME280;62539;51.190;6.808;2023-05-19T10:49:06;102054.13;;;21.85;46.68
62617;BME280;62539;51.190;6.808;2023-05-19T10:51:32;102038.19;;;21.88;46.48
62617;BME280;62539;51.190;6.808;2023-05-19T10:54:02;102041.56;;;21.93;46.57
62617;BME280;62539;51.190;6.808;2023-05-19T10:56:33;102033.50;;;21.98;46.17
62617;BME280;62539;51.190;6.808;2023-05-19T10:59:01;102029.00;;;22.01;46.26
62617;BME280;62539;51.190;6.808;2023-05-19T11:01:32;102040.25;;;22.08;46.13
62617;BME280;62539;51.190;6.808;2023-05-19T11:04:08;102037.47;;;22.13;45.94
62617;BME280;62539;51.190;6.808;2023-05-19T11:06:36;102037.31;;;22.17;45.77
62617;BME280;62539;51.190;6.808;2023-05-19T11:09:14;102038.94;;;22.23;45.88
62617;BME280;62539;51.190;6.808;2023-05-19T11:11:53;102043.16;;;22.29;46.04
62617;BME280;62539;51.190;6.808;2023-05-19T11:14:24;102048.25;;;22.35;45.88
62617;BME280;62539;51.190;6.808;2023-05-19T11:16:58;102033.19;;;22.39;45.38
62617;BME280;62539;51.190;6.808;2023-05-19T11:19:25;102025.97;;;22.44;45.57
62617;BME280;62539;51.190;6.808;2023-05-19T11:21:52;102028.47;;;22.50;45.40
62617;BME280;62539;51.190;6.808;2023-05-19T11:24:44;102027.44;;;22.54;45.06
62617;BME280;62539;51.190;6.808;2023-05-19T11:27:19;102033.34;;;22.63;45.21
62617;BME280;62539;51.190;6.808;2023-05-19T11:32:32;102018.00;;;22.74;44.68
62617;BME280;62539;51.190;6.808;2023-05-19T11:35:00;102028.38;;;22.80;44.62
62617;BME280;62539;51.190;6.808;2023-05-19T11:37:27;102028.19;;;22.86;44.37
62617;BME280;62539;51.190;6.808;2023-05-19T11:39:56;102020.91;;;22.93;44.55
62617;BME280;62539;51.190;6.808;2023-05-19T11:42:22;102022.50;;;22.99;44.40
62617;BME280;62539;51.190;6.808;2023-05-19T11:44:48;102016.09;;;23.04;44.26
62617;BME280;62539;51.190;6.808;2023-05-19T11:47:15;102022.19;;;23.08;44.37
62617;BME280;62539;51.190;6.808;2023-05-19T11:49:46;102013.09;;;23.15;44.27
62617;BME280;62539;51.190;6.808;2023-05-19T11:52:12;102013.75;;;23.22;43.78
62617;BME280;62539;51.190;6.808;2023-05-19T11:54:38;102000.28;;;23.30;43.81
62617;BME280;62539;51.190;6.808;2023-05-19T11:57:07;102012.38;;;23.37;43.50
62617;BME280;62539;51.190;6.808;2023-05-19T11:59:35;102004.22;;;23.43;43.66
62617;BME280;62539;51.190;6.808;2023-05-19T12:02:15;102006.28;;;23.35;43.62
62617;BME280;62539;51.190;6.808;2023-05-19T12:04:48;102006.75;;;23.46;43.34
62617;BME280;62539;51.190;6.808;2023-05-19T12:07:14;102005.63;;;23.54;43.35
62617;BME280;62539;51.190;6.808;2023-05-19T12:09:44;102009.78;;;23.61;43.23
62617;BME280;62539;51.190;6.808;2023-05-19T12:12:21;102006.84;;;23.69;43.00
62617;BME280;62539;51.190;6.808;2023-05-19T12:14:51;102003.00;;;23.77;42.74
62617;BME280;62539;51.190;6.808;2023-05-19T12:17:20;102003.53;;;23.86;42.78
62617;BME280;62539;51.190;6.808;2023-05-19T12:19:48;101997.88;;;23.95;42.20
62617;BME280;62539;51.190;6.808;2023-05-19T12:22:15;101994.06;;;24.04;42.46
62617;BME280;62539;51.190;6.808;2023-05-19T12:24:42;101991.91;;;24.14;42.18
62617;BME280;62539;51.190;6.808;2023-05-19T12:29:50;101984.16;;;24.31;41.51
62617;BME280;62539;51.190;6.808;2023-05-19T12:32:17;101977.69;;;24.39;41.54
62617;BME280;62539;51.190;6.808;2023-05-19T12:34:43;101976.38;;;24.49;41.61
62617;BME280;62539;51.190;6.808;2023-05-19T12:37:09;101974.16;;;24.60;41.28
62617;BME280;62539;51.190;6.808;2023-05-19T12:39:35;101972.03;;;24.69;41.05
62617;BME280;62539;51.190;6.808;2023-05-19T12:42:08;101969.97;;;24.77;40.73
62617;BME280;62539;51.190;6.808;2023-05-19T12:44:41;101969.66;;;24.85;40.79
62617;BME280;62539;51.190;6.808;2023-05-19T12:47:10;101966.59;;;24.94;40.38
62617;BME280;62539;51.190;6.808;2023-05-19T12:49:36;101962.66;;;25.03;40.54
62617;BME280;62539;51.190;6.808;2023-05-19T12:52:02;101968.50;;;25.11;40.05
62617;BME280;62539;51.190;6.808;2023-05-19T12:54:32;101964.66;;;25.18;39.95
62617;BME280;62539;51.190;6.808;2023-05-19T12:56:58;101960.66;;;25.29;39.97
62617;BME280;62539;51.190;6.808;2023-05-19T12:59:24;101954.22;;;25.34;39.89
62617;BME280;62539;51.190;6.808;2023-05-19T13:01:55;101959.06;;;25.24;39.69
62617;BME280;62539;51.190;6.808;2023-05-19T13:04:26;101956.44;;;25.04;39.98
62617;BME280;62539;51.190;6.808;2023-05-19T13:06:52;101963.06;;;25.14;40.24
62617;BME280;62539;51.190;6.808;2023-05-19T13:09:19;101964.25;;;25.28;39.56
62617;BME280;62539;51.190;6.808;2023-05-19T13:11:46;101956.63;;;25.41;39.63
62617;BME280;62539;51.190;6.808;2023-05-19T13:14:18;101962.63;;;25.44;39.31
62617;BME280;62539;51.190;6.808;2023-05-19T13:16:45;101959.88;;;25.47;39.23
62617;BME280;62539;51.190;6.808;2023-05-19T13:19:18;101961.53;;;25.50;39.33